createdAt,value
2019-01-26T00:00:48.229Z,99967.16
2019-01-26T00:01:52.353Z,99969.84
2019-01-26T00:02:56.409Z,99968.08
2019-01-26T00:04:00.607Z,99967.59
2019-01-26T00:05:05.591Z,99964.91
2019-01-26T00:06:09.869Z,99961.27
2019-01-26T00:07:13.960Z,99968.34
2019-01-26T00:08:17.965Z,99965.55
2019-01-26T00:09:21.975Z,99963.75
2019-01-26T00:10:26.052Z,99965.05
2019-01-26T00:11:30.067Z,99964.98
2019-01-26T00:12:34.107Z,99956.80
2019-01-26T00:13:38.102Z,99966.29
2019-01-26T00:14:42.114Z,99955.09
2019-01-26T00:15:46.147Z,99950.66
2019-01-26T00:16:50.213Z,99955.09
2019-01-26T00:17:54.249Z,99952.00
2019-01-26T00:18:58.095Z,99950.66
2019-01-26T00:20:02.042Z,99946.20
2019-01-26T00:21:06.031Z,99946.27
2019-01-26T00:22:10.039Z,99942.18
2019-01-26T00:23:14.055Z,99940.84
2019-01-26T00:24:17.990Z,99934.13
2019-01-26T00:25:21.989Z,99934.55
2019-01-26T00:26:26.329Z,99936.74
2019-01-26T00:27:30.253Z,99934.98
2019-01-26T00:28:34.327Z,99935.83
2019-01-26T00:29:38.339Z,99934.41
2019-01-26T00:30:42.343Z,99933.45
2019-01-26T00:31:46.695Z,99935.69
2019-01-26T00:32:50.725Z,99931.73
2019-01-26T00:33:55.021Z,99921.81
2019-01-26T00:34:58.993Z,99923.08
2019-01-26T00:36:02.995Z,99927.52
2019-01-26T00:37:07.311Z,99921.27
2019-01-26T00:38:11.636Z,99915.45
2019-01-26T00:39:15.692Z,99919.30
2019-01-26T00:40:19.699Z,99917.53
2019-01-26T00:41:23.699Z,99921.98
2019-01-26T00:42:28.154Z,99924.66
2019-01-26T00:43:32.498Z,99913.01
2019-01-26T00:44:36.434Z,99921.06
2019-01-26T00:45:40.434Z,99925.47
2019-01-26T00:46:44.434Z,99918.34
2019-01-26T00:47:48.774Z,99925.36
2019-01-26T00:48:52.781Z,99908.80
2019-01-26T00:49:56.784Z,99921.80
2019-01-26T00:51:00.791Z,99923.13
2019-01-26T00:52:04.900Z,99922.64
2019-01-26T00:53:08.845Z,99923.13
2019-01-26T00:54:12.856Z,99920.88
2019-01-26T00:55:17.107Z,99923.59
2019-01-26T00:56:21.161Z,99928.08
2019-01-26T00:57:25.172Z,99928.47
2019-01-26T00:58:29.556Z,99919.53
2019-01-26T00:59:33.775Z,99924.48
2019-01-26T01:00:37.781Z,99922.25
2019-01-26T01:01:41.793Z,99926.70
2019-01-26T01:02:45.905Z,99923.09
2019-01-26T01:03:49.921Z,99922.22
2019-01-26T01:04:53.927Z,99921.30
2019-01-26T01:05:58.197Z,99915.97
2019-01-26T01:07:02.191Z,99915.47
2019-01-26T01:08:06.387Z,99919.03
2019-01-26T01:09:10.514Z,99925.67
2019-01-26T01:10:15.228Z,99915.85
2019-01-26T01:11:19.157Z,99923.06
2019-01-26T01:12:23.336Z,99914.16
2019-01-26T01:13:27.350Z,99907.88
2019-01-26T01:14:31.281Z,99907.38
2019-01-26T01:15:35.291Z,99909.95
2019-01-26T01:16:39.297Z,99908.15
2019-01-26T01:17:43.299Z,99899.75
2019-01-26T01:18:47.361Z,99913.17
2019-01-26T01:19:51.337Z,99924.33
2019-01-26T01:20:55.447Z,99907.38
2019-01-26T01:21:59.753Z,99917.69
2019-01-26T01:23:03.746Z,99917.69
2019-01-26T01:24:08.009Z,99917.20
2019-01-26T01:25:12.560Z,99918.08
2019-01-26T01:26:16.800Z,99909.56
2019-01-26T01:27:20.799Z,99914.09
2019-01-26T01:28:25.045Z,99904.70
2019-01-26T01:29:29.072Z,99904.77
2019-01-26T01:30:33.177Z,99898.56
2019-01-26T01:31:37.340Z,99899.44
2019-01-26T01:32:41.255Z,99867.64
2019-01-26T01:33:45.250Z,99897.52
2019-01-26T01:34:49.297Z,99893.84
2019-01-26T01:35:53.577Z,99901.59
2019-01-26T01:36:57.756Z,99908.38
2019-01-26T01:38:02.002Z,99895.95
2019-01-26T01:39:08.708Z,99901.81
2019-01-26T01:40:13.208Z,99896.41
2019-01-26T01:41:17.219Z,99897.75
2019-01-26T01:42:21.221Z,99889.23
2019-01-26T01:43:25.216Z,99902.20
2019-01-26T01:44:29.230Z,99892.73
2019-01-26T01:45:33.483Z,99888.24
2019-01-26T01:46:42.919Z,99889.09
2019-01-26T01:47:43.323Z,99890.43
2019-01-26T01:48:47.489Z,99884.10
2019-01-26T01:49:51.559Z,99881.38
2019-01-26T01:50:55.561Z,99885.91
2019-01-26T01:51:59.868Z,99889.02
2019-01-26T01:53:03.963Z,99881.45
2019-01-26T01:54:07.996Z,99883.22
2019-01-26T01:55:12.893Z,99883.69
2019-01-26T01:56:16.965Z,99888.13
2019-01-26T01:57:20.936Z,99879.55
2019-01-26T01:58:24.956Z,99883.95
2019-01-26T01:59:28.872Z,99881.73
2019-01-26T02:00:32.888Z,99876.36
2019-01-26T02:01:36.817Z,99872.80
2019-01-26T02:02:41.004Z,99872.72
2019-01-26T02:03:44.931Z,99865.16
2019-01-26T02:04:48.929Z,99863.32
2019-01-26T02:05:52.858Z,99864.66
2019-01-26T02:06:56.851Z,99858.83
2019-01-26T02:08:00.780Z,99861.48
2019-01-26T02:09:07.795Z,99863.23
2019-01-26T02:10:13.433Z,99872.64
2019-01-26T02:11:17.441Z,99866.84
2019-01-26T02:12:21.446Z,99862.25
2019-01-26T02:13:25.720Z,99855.99
2019-01-26T02:14:29.790Z,99853.31
2019-01-26T02:15:33.805Z,99855.11
2019-01-26T02:16:37.811Z,99852.81
2019-01-26T02:17:42.008Z,99851.47
2019-01-26T02:18:45.930Z,99847.44
2019-01-26T02:19:50.023Z,99850.13
2019-01-26T02:20:54.041Z,99850.08
2019-01-26T02:21:58.044Z,99846.44
2019-01-26T02:23:02.049Z,99845.09
2019-01-26T02:24:06.058Z,99844.55
2019-01-26T02:25:10.157Z,99840.11
2019-01-26T02:26:14.176Z,99837.84
2019-01-26T02:27:18.181Z,99835.54
2019-01-26T02:28:22.435Z,99834.16
2019-01-26T02:29:26.455Z,99840.03
2019-01-26T02:30:30.476Z,99841.75
2019-01-26T02:31:34.482Z,99840.87
2019-01-26T02:32:38.482Z,99835.84
2019-01-26T02:33:42.893Z,99832.35
2019-01-26T02:34:46.790Z,99835.84
2019-01-26T02:35:50.873Z,99837.61
2019-01-26T02:36:55.128Z,99838.03
2019-01-26T02:37:59.118Z,99828.67
2019-01-26T02:39:04.641Z,99832.31
2019-01-26T02:40:10.369Z,99829.62
2019-01-26T02:41:14.394Z,99834.04
2019-01-26T02:42:18.355Z,99833.48
2019-01-26T02:43:22.664Z,99829.51
2019-01-26T02:44:26.833Z,99829.62
2019-01-26T02:45:30.937Z,99836.72
2019-01-26T02:46:34.877Z,99831.81
2019-01-26T02:47:39.135Z,99838.91
2019-01-26T02:48:43.382Z,99835.77
2019-01-26T02:49:47.379Z,99833.12
2019-01-26T02:50:51.320Z,99841.13
2019-01-26T02:51:55.595Z,99835.34
2019-01-26T02:52:59.901Z,99837.56
2019-01-26T02:54:03.905Z,99835.75
2019-01-26T02:55:08.020Z,99830.80
2019-01-26T02:56:12.413Z,99824.97
2019-01-26T02:57:16.427Z,99821.83
2019-01-26T02:58:20.409Z,99821.75
2019-01-26T02:59:24.730Z,99825.73
2019-01-26T03:00:29.057Z,99832.45
2019-01-26T03:01:33.081Z,99825.73
2019-01-26T03:02:36.936Z,99832.82
2019-01-26T03:03:41.140Z,99827.03
2019-01-26T03:04:45.148Z,99827.45
2019-01-26T03:05:49.075Z,99827.88
2019-01-26T03:06:53.349Z,99824.27
2019-01-26T03:07:57.472Z,99823.34
2019-01-26T03:09:01.755Z,99826.41
2019-01-26T03:10:07.302Z,99828.13
2019-01-26T03:11:11.306Z,99826.28
2019-01-26T03:12:15.320Z,99824.43
2019-01-26T03:13:19.325Z,99818.13
2019-01-26T03:14:23.251Z,99824.27
2019-01-26T03:15:27.670Z,99825.15
2019-01-26T03:16:31.928Z,99820.66
2019-01-26T03:17:35.944Z,99819.77
2019-01-26T03:18:40.181Z,99816.17
2019-01-26T03:19:44.184Z,99813.39
2019-01-26T03:20:48.197Z,99810.75
2019-01-26T03:21:52.114Z,99814.73
2019-01-26T03:22:56.127Z,99807.52
2019-01-26T03:24:00.119Z,99808.41
2019-01-26T03:25:05.096Z,99807.48
2019-01-26T03:26:09.099Z,99799.88
2019-01-26T03:27:13.112Z,99799.38
2019-01-26T03:28:17.463Z,99806.05
2019-01-26T03:29:21.462Z,99799.38
2019-01-26T03:30:26.002Z,99795.77
2019-01-26T03:31:29.994Z,99793.54
2019-01-26T03:32:33.997Z,99792.61
2019-01-26T03:33:38.240Z,99791.69
2019-01-26T03:34:42.088Z,99799.75
2019-01-26T03:35:46.342Z,99796.13
2019-01-26T03:36:50.272Z,99800.63
2019-01-26T03:37:54.201Z,99795.72
2019-01-26T03:38:58.199Z,99802.44
2019-01-26T03:40:02.445Z,99797.48
2019-01-26T03:41:06.441Z,99798.41
2019-01-26T03:42:10.433Z,99797.56
2019-01-26T03:43:14.443Z,99793.12
2019-01-26T03:44:18.665Z,99789.09
2019-01-26T03:45:22.670Z,99793.58
2019-01-26T03:46:26.665Z,99791.31
2019-01-26T03:47:30.666Z,99796.69
2019-01-26T03:48:34.683Z,99795.81
2019-01-26T03:49:38.678Z,99803.83
2019-01-26T03:50:42.692Z,99806.97
2019-01-26T03:51:46.937Z,99802.02
2019-01-26T03:52:50.883Z,99800.21
2019-01-26T03:53:55.045Z,99805.63
2019-01-26T03:54:59.162Z,99800.67
2019-01-26T03:56:03.405Z,99808.31
2019-01-26T03:57:07.650Z,99804.79
2019-01-26T03:58:11.951Z,99817.81
2019-01-26T03:59:15.941Z,99817.81
2019-01-26T04:00:22.013Z,99814.23
2019-01-26T04:01:26.003Z,99808.36
2019-01-26T04:02:30.122Z,99809.75
2019-01-26T04:03:34.136Z,99802.64
2019-01-26T04:04:38.140Z,99808.02
2019-01-26T04:05:42.137Z,99806.67
2019-01-26T04:06:46.138Z,99806.26
2019-01-26T04:07:50.138Z,99806.26
2019-01-26T04:08:54.143Z,99810.58
2019-01-26T04:09:58.135Z,99805.13
2019-01-26T04:11:02.130Z,99797.61
2019-01-26T04:12:06.126Z,99799.96
2019-01-26T04:13:10.123Z,99806.26
2019-01-26T04:14:14.127Z,99806.67
2019-01-26T04:15:18.512Z,99804.91
2019-01-26T04:16:23.008Z,99806.26
2019-01-26T04:17:26.937Z,99805.33
2019-01-26T04:18:30.860Z,99794.59
2019-01-26T04:19:35.327Z,99799.00
2019-01-26T04:20:39.489Z,99795.93
2019-01-26T04:21:43.494Z,99806.09
2019-01-26T04:22:47.495Z,99793.95
2019-01-26T04:23:51.835Z,99789.55
2019-01-26T04:24:55.853Z,99771.20
2019-01-26T04:25:59.781Z,99770.33
2019-01-26T04:27:03.785Z,99769.41
2019-01-26T04:28:07.715Z,99774.44
2019-01-26T04:29:11.744Z,99766.38
2019-01-26T04:30:18.138Z,99766.67
2019-01-26T04:31:22.430Z,99757.36
2019-01-26T04:32:26.349Z,99753.33
2019-01-26T04:33:30.289Z,99750.17
2019-01-26T04:34:34.222Z,99744.88
2019-01-26T04:35:38.230Z,99749.37
2019-01-26T04:36:42.293Z,99748.83
2019-01-26T04:37:46.309Z,99739.09
2019-01-26T04:38:50.241Z,99743.54
2019-01-26T04:39:54.635Z,99742.48
2019-01-26T04:40:58.836Z,99741.61
2019-01-26T04:42:03.066Z,99743.41
2019-01-26T04:43:07.071Z,99742.95
2019-01-26T04:44:12.998Z,99751.84
2019-01-26T04:45:22.446Z,99739.71
2019-01-26T04:46:27.142Z,99733.87
2019-01-26T04:47:31.359Z,99730.77
2019-01-26T04:48:35.269Z,99739.30
2019-01-26T04:49:39.274Z,99737.91
2019-01-26T04:50:43.273Z,99745.38
2019-01-26T04:51:47.890Z,99742.17
2019-01-26T04:52:51.873Z,99741.39
2019-01-26T04:53:56.271Z,99738.29
2019-01-26T04:55:00.296Z,99736.09
2019-01-26T04:56:04.758Z,99737.02
2019-01-26T04:57:08.690Z,99729.72
2019-01-26T04:58:12.780Z,99727.08
2019-01-26T04:59:16.796Z,99728.88
2019-01-26T05:00:26.132Z,99744.54
2019-01-26T05:01:30.129Z,99752.31
2019-01-26T05:02:34.130Z,99730.45
2019-01-26T05:03:38.208Z,99738.83
2019-01-26T05:04:42.218Z,99735.77
2019-01-26T05:05:46.225Z,99743.00
2019-01-26T05:06:50.222Z,99736.61
2019-01-26T05:07:54.299Z,99736.23
2019-01-26T05:08:58.231Z,99741.14
2019-01-26T05:10:02.234Z,99737.07
2019-01-26T05:11:06.314Z,99739.30
2019-01-26T05:12:10.317Z,99743.33
2019-01-26T05:13:14.321Z,99746.42
2019-01-26T05:14:18.316Z,99745.97
2019-01-26T05:15:22.425Z,99747.77
2019-01-26T05:16:26.465Z,99740.59
2019-01-26T05:17:30.844Z,99747.69
2019-01-26T05:18:34.767Z,99745.84
2019-01-26T05:19:38.948Z,99741.77
2019-01-26T05:20:42.966Z,99742.59
2019-01-26T05:21:46.966Z,99749.31
2019-01-26T05:22:51.078Z,99747.05
2019-01-26T05:23:54.978Z,99747.05
2019-01-26T05:24:59.353Z,99751.00
2019-01-26T05:26:03.438Z,99753.22
2019-01-26T05:27:07.436Z,99750.15
2019-01-26T05:28:11.428Z,99750.15
2019-01-26T05:29:15.776Z,99752.34
2019-01-26T05:30:30.040Z,99759.47
2019-01-26T05:31:34.045Z,99757.20
2019-01-26T05:32:37.977Z,99757.67
2019-01-26T05:33:42.329Z,99757.16
2019-01-26T05:34:46.589Z,99767.35
2019-01-26T05:35:50.784Z,99752.16
2019-01-26T05:36:54.886Z,99752.20
2019-01-26T05:37:59.147Z,99750.02
2019-01-26T05:39:04.296Z,99755.39
2019-01-26T05:40:11.221Z,99757.58
2019-01-26T05:41:15.210Z,99763.41
2019-01-26T05:42:19.128Z,99759.33
2019-01-26T05:43:23.357Z,99756.05
2019-01-26T05:44:27.360Z,99758.83
2019-01-26T05:45:31.373Z,99745.89
2019-01-26T05:46:35.362Z,99752.61
2019-01-26T05:47:47.640Z,99746.31
2019-01-26T05:48:44.989Z,99744.55
2019-01-26T05:49:48.980Z,99747.11
2019-01-26T05:50:52.986Z,99749.41
2019-01-26T05:51:56.982Z,99748.92
2019-01-26T05:53:00.971Z,99747.11
2019-01-26T05:54:04.958Z,99745.77
2019-01-26T05:55:09.186Z,99735.90
2019-01-26T05:56:13.392Z,99748.83
2019-01-26T05:57:17.316Z,99744.80
2019-01-26T05:58:21.234Z,99736.27
2019-01-26T05:59:25.219Z,99747.02
2019-01-26T06:00:31.571Z,99737.61
2019-01-26T06:01:35.574Z,99739.05
2019-01-26T06:02:39.571Z,99743.08
2019-01-26T06:03:43.563Z,99742.16
2019-01-26T06:04:47.480Z,99741.69
2019-01-26T06:05:51.420Z,99733.99
2019-01-26T06:06:55.412Z,99741.97
2019-01-26T06:07:59.499Z,99743.87
2019-01-26T06:09:05.228Z,99744.89
2019-01-26T06:10:09.537Z,99734.22
2019-01-26T06:11:13.545Z,99733.16
2019-01-26T06:12:17.540Z,99722.05
2019-01-26T06:13:21.612Z,99725.14
2019-01-26T06:14:25.770Z,99731.53
2019-01-26T06:15:30.023Z,99730.70
2019-01-26T06:16:34.255Z,99729.30
2019-01-26T06:17:38.258Z,99734.22
2019-01-26T06:18:42.260Z,99731.77
2019-01-26T06:19:46.185Z,99729.08
2019-01-26T06:20:50.361Z,99737.23
2019-01-26T06:21:54.372Z,99742.84
2019-01-26T06:22:58.369Z,99737.09
2019-01-26T06:24:02.447Z,99733.90
2019-01-26T06:25:06.937Z,99742.88
2019-01-26T06:26:10.955Z,99748.21
2019-01-26T06:27:14.951Z,99739.59
2019-01-26T06:28:18.954Z,99746.41
2019-01-26T06:29:22.961Z,99744.23
2019-01-26T06:30:27.325Z,99744.23
2019-01-26T06:31:31.571Z,99740.61
2019-01-26T06:32:35.566Z,99750.02
2019-01-26T06:33:39.556Z,99743.21
2019-01-26T06:34:43.559Z,99738.34
2019-01-26T06:35:47.594Z,99751.31
2019-01-26T06:36:51.594Z,99749.09
2019-01-26T06:37:55.874Z,99748.21
2019-01-26T06:38:59.711Z,99745.98
2019-01-26T06:40:03.805Z,99748.21
2019-01-26T06:41:08.359Z,99754.94
2019-01-26T06:42:12.537Z,99744.38
2019-01-26T06:43:16.533Z,99751.61
2019-01-26T06:44:20.532Z,99752.91
2019-01-26T06:45:24.533Z,99750.34
2019-01-26T06:46:28.528Z,99755.30
2019-01-26T06:47:32.601Z,99752.95
2019-01-26T06:48:36.592Z,99752.02
2019-01-26T06:49:40.514Z,99756.47
2019-01-26T06:50:44.746Z,99756.38
2019-01-26T06:51:54.786Z,99756.33
2019-01-26T06:52:58.812Z,99754.44
2019-01-26T06:54:02.847Z,99750.31
2019-01-26T06:55:08.228Z,99753.32
2019-01-26T06:56:12.512Z,99753.56
2019-01-26T06:57:16.821Z,99752.72
2019-01-26T06:58:21.163Z,99753.09
2019-01-26T06:59:25.184Z,99753.00
2019-01-26T07:00:31.008Z,99750.83
2019-01-26T07:01:34.942Z,99751.75
2019-01-26T07:02:39.015Z,99760.78
2019-01-26T07:03:43.054Z,99756.25
2019-01-26T07:05:09.129Z,99759.90
2019-01-26T07:06:26.483Z,99756.75
2019-01-26T07:07:30.501Z,99757.08
2019-01-26T07:08:34.432Z,99759.16
2019-01-26T07:09:38.434Z,99760.88
2019-01-26T07:10:42.455Z,99752.77
2019-01-26T07:11:46.510Z,99754.57
2019-01-26T07:12:50.544Z,99752.39
2019-01-26T07:13:54.553Z,99759.67
2019-01-26T07:14:58.480Z,99751.14
2019-01-26T07:16:02.596Z,99754.66
2019-01-26T07:17:06.595Z,99755.78
2019-01-26T07:18:10.935Z,99757.77
2019-01-26T07:19:14.932Z,99756.00
2019-01-26T07:20:18.947Z,99752.30
2019-01-26T07:21:22.953Z,99758.19
2019-01-26T07:22:26.890Z,99752.86
2019-01-26T07:23:30.850Z,99757.30
2019-01-26T07:24:34.888Z,99753.70
2019-01-26T07:25:38.824Z,99757.36
2019-01-26T07:26:42.825Z,99758.89
2019-01-26T07:27:47.142Z,99757.67
2019-01-26T07:28:51.162Z,99756.52
2019-01-26T07:29:55.445Z,99753.56
2019-01-26T07:30:59.807Z,99758.94
2019-01-26T07:32:04.033Z,99761.16
2019-01-26T07:33:08.043Z,99761.58
2019-01-26T07:34:13.444Z,99762.92
2019-01-26T07:35:17.682Z,99755.69
2019-01-26T07:36:22.126Z,99758.33
2019-01-26T07:37:26.408Z,99765.42
2019-01-26T07:38:32.386Z,99765.61
2019-01-26T07:39:36.992Z,99767.00
2019-01-26T07:40:40.928Z,99768.30
2019-01-26T07:41:45.031Z,99767.38
2019-01-26T07:42:49.039Z,99770.30
2019-01-26T07:43:53.042Z,99769.93
2019-01-26T07:44:57.001Z,99775.72
2019-01-26T07:46:01.325Z,99769.47
2019-01-26T07:47:05.575Z,99771.27
2019-01-26T07:48:16.547Z,99773.03
2019-01-26T07:49:15.586Z,99773.03
2019-01-26T07:50:20.337Z,99773.86
2019-01-26T07:51:24.853Z,99763.77
2019-01-26T07:52:28.853Z,99762.10
2019-01-26T07:53:33.160Z,99759.49
2019-01-26T07:54:37.408Z,99764.45
2019-01-26T07:55:41.408Z,99751.30
2019-01-26T07:56:45.411Z,99755.00
2019-01-26T07:57:49.654Z,99764.33
2019-01-26T07:58:53.648Z,99754.53
2019-01-26T07:59:58.199Z,99755.80
2019-01-26T08:01:02.368Z,99757.04
2019-01-26T08:02:06.365Z,99753.89
2019-01-26T08:03:10.378Z,99751.56
2019-01-26T08:04:14.389Z,99752.44
2019-01-26T08:05:18.707Z,99750.14
2019-01-26T08:06:22.712Z,99752.44
2019-01-26T08:07:26.878Z,99758.20
2019-01-26T08:08:31.780Z,99755.05
2019-01-26T08:09:35.798Z,99757.27
2019-01-26T08:10:40.043Z,99756.34
2019-01-26T08:11:44.305Z,99754.48
2019-01-26T08:12:48.578Z,99752.21
2019-01-26T08:13:52.592Z,99751.75
2019-01-26T08:14:56.609Z,99754.39
2019-01-26T08:16:00.881Z,99746.31
2019-01-26T08:17:05.213Z,99748.45
2019-01-26T08:18:10.255Z,99752.44
2019-01-26T08:19:14.655Z,99742.00
2019-01-26T08:20:19.922Z,99749.19
2019-01-26T08:21:23.950Z,99745.56
2019-01-26T08:22:27.900Z,99745.43
2019-01-26T08:23:32.485Z,99747.70
2019-01-26T08:24:36.840Z,99743.63
2019-01-26T08:25:40.875Z,99738.23
2019-01-26T08:26:45.232Z,99741.81
2019-01-26T08:27:49.254Z,99748.90
2019-01-26T08:28:54.246Z,99750.70
2019-01-26T08:29:58.567Z,99747.00
2019-01-26T08:31:02.951Z,99740.81
2019-01-26T08:32:07.299Z,99742.30
2019-01-26T08:33:11.722Z,99739.71
2019-01-26T08:34:15.977Z,99750.06
2019-01-26T08:35:20.602Z,99743.84
2019-01-26T08:36:24.780Z,99750.98
2019-01-26T08:37:28.911Z,99743.33
2019-01-26T08:38:33.221Z,99739.24
2019-01-26T08:39:37.945Z,99729.36
2019-01-26T08:40:42.350Z,99746.80
2019-01-26T08:41:46.656Z,99743.41
2019-01-26T08:42:50.805Z,99737.84
2019-01-26T08:43:55.406Z,99734.22
2019-01-26T08:45:00.299Z,99739.30
2019-01-26T08:46:04.603Z,99739.81
2019-01-26T08:47:09.427Z,99743.33
2019-01-26T08:48:13.453Z,99738.88
2019-01-26T08:49:17.694Z,99738.83
2019-01-26T08:50:23.597Z,99733.81
2019-01-26T08:51:27.643Z,99740.87
2019-01-26T08:52:31.999Z,99735.44
2019-01-26T08:53:36.395Z,99733.57
2019-01-26T08:54:40.636Z,99736.07
2019-01-26T08:55:45.237Z,99740.05
2019-01-26T08:56:49.369Z,99729.66
2019-01-26T08:57:53.690Z,99728.25
2019-01-26T08:58:57.710Z,99731.77
2019-01-26T09:00:01.935Z,99733.96
2019-01-26T09:01:06.072Z,99739.76
2019-01-26T09:02:31.865Z,99737.02
2019-01-26T09:03:55.141Z,99729.77
2019-01-26T09:04:59.347Z,99725.27
2019-01-26T09:06:10.265Z,99730.75
2019-01-26T09:07:14.406Z,99739.30
2019-01-26T09:08:18.887Z,99728.99
2019-01-26T09:09:22.915Z,99734.32
2019-01-26T09:10:27.205Z,99735.67
2019-01-26T09:11:31.346Z,99738.77
2019-01-26T09:12:35.703Z,99730.23
2019-01-26T09:13:40.237Z,99735.15
2019-01-26T09:14:44.169Z,99726.61
2019-01-26T09:15:48.350Z,99728.83
2019-01-26T09:16:52.442Z,99734.48
2019-01-26T09:17:56.468Z,99723.14
2019-01-26T09:19:01.131Z,99726.41
2019-01-26T09:20:07.672Z,99723.39
2019-01-26T09:21:12.083Z,99722.52
2019-01-26T09:22:17.181Z,99716.31
2019-01-26T09:23:21.882Z,99710.92
2019-01-26T09:24:26.696Z,99708.50
2019-01-26T09:25:31.086Z,99712.80
2019-01-26T09:26:35.927Z,99709.22
2019-01-26T09:27:41.450Z,99705.18
2019-01-26T09:28:46.503Z,99705.92
2019-01-26T09:29:51.318Z,99708.86
2019-01-26T09:30:56.681Z,99714.09
2019-01-26T09:32:01.862Z,99711.00
2019-01-26T09:33:06.552Z,99719.78
2019-01-26T09:34:11.402Z,99720.31
2019-01-26T09:35:15.757Z,99718.03
2019-01-26T09:36:20.746Z,99716.22
2019-01-26T09:37:26.011Z,99711.23
2019-01-26T09:38:30.773Z,99710.22
2019-01-26T09:39:35.609Z,99715.55
2019-01-26T09:40:39.984Z,99719.12
2019-01-26T09:41:44.244Z,99727.82
2019-01-26T09:42:49.947Z,99726.06
2019-01-26T09:43:54.750Z,99723.05
2019-01-26T09:44:59.538Z,99721.70
2019-01-26T09:46:04.446Z,99717.14
2019-01-26T09:47:08.851Z,99725.38
2019-01-26T09:48:13.398Z,99724.50
2019-01-26T09:49:17.738Z,99724.50
2019-01-26T09:50:21.980Z,99722.69
2019-01-26T09:51:25.994Z,99720.36
2019-01-26T09:52:30.042Z,99726.16
2019-01-26T09:53:34.816Z,99722.52
2019-01-26T09:54:39.519Z,99721.03
2019-01-26T09:55:44.053Z,99722.67
2019-01-26T09:56:49.032Z,99722.12
2019-01-26T09:57:53.235Z,99724.03
2019-01-26T09:58:58.020Z,99730.77
2019-01-26T10:00:02.298Z,99722.67
2019-01-26T10:01:07.548Z,99723.47
2019-01-26T10:02:11.911Z,99720.77
2019-01-26T10:03:16.457Z,99725.64
2019-01-26T10:04:21.521Z,99717.03
2019-01-26T10:05:25.876Z,99715.16
2019-01-26T10:06:30.992Z,99716.05
2019-01-26T10:07:37.295Z,99722.69
2019-01-26T10:08:42.584Z,99716.36
2019-01-26T10:09:47.310Z,99728.38
2019-01-26T10:10:53.172Z,99724.74
2019-01-26T10:11:57.972Z,99724.22
2019-01-26T10:13:02.467Z,99719.61
2019-01-26T10:14:07.331Z,99708.31
2019-01-26T10:15:13.514Z,99716.34
2019-01-26T10:16:18.001Z,99709.95
2019-01-26T10:17:22.686Z,99709.08
2019-01-26T10:18:27.705Z,99711.67
2019-01-26T10:19:32.725Z,99706.99
2019-01-26T10:20:38.139Z,99717.30
2019-01-26T10:21:43.443Z,99711.77
2019-01-26T10:22:49.179Z,99710.41
2019-01-26T10:23:54.834Z,99708.13
2019-01-26T10:25:00.041Z,99706.31
2019-01-26T10:26:04.999Z,99706.45
2019-01-26T10:27:09.448Z,99707.08
2019-01-26T10:28:14.672Z,99705.26
2019-01-26T10:29:20.462Z,99701.95
2019-01-26T10:30:34.264Z,99703.23
2019-01-26T10:31:39.363Z,99704.64
2019-01-26T10:32:43.876Z,99699.25
2019-01-26T10:33:48.313Z,99700.28
2019-01-26T10:34:52.791Z,99698.93
2019-01-26T10:36:16.381Z,99698.93
2019-01-26T10:37:25.803Z,99702.88
2019-01-26T10:38:30.973Z,99697.02
2019-01-26T10:39:35.601Z,99702.83
2019-01-26T10:40:59.292Z,99699.19
2019-01-26T10:42:21.034Z,99699.59
2019-01-26T10:43:26.408Z,99696.84
2019-01-26T10:44:31.788Z,99695.28
2019-01-26T10:45:36.815Z,99702.02
2019-01-26T10:46:42.051Z,99695.20
2019-01-26T10:47:47.390Z,99693.79
2019-01-26T10:49:00.451Z,99695.05
2019-01-26T10:50:00.479Z,99694.10
2019-01-26T10:51:05.036Z,99692.22
2019-01-26T10:52:09.919Z,99681.78
2019-01-26T10:53:14.982Z,99682.10
2019-01-26T10:54:19.667Z,99671.72
2019-01-26T10:55:24.685Z,99677.88
2019-01-26T10:56:30.439Z,99685.95
2019-01-26T10:57:35.093Z,99683.61
2019-01-26T10:58:39.974Z,99678.69
2019-01-26T10:59:45.278Z,99672.83
2019-01-26T11:00:51.553Z,99672.89
2019-01-26T11:01:57.038Z,99672.42
2019-01-26T11:03:02.267Z,99678.88
2019-01-26T11:04:07.925Z,99674.70
2019-01-26T11:05:14.372Z,99679.41
2019-01-26T11:06:21.199Z,99671.95
2019-01-26T11:07:28.298Z,99683.61
2019-01-26T11:08:34.343Z,99681.76
2019-01-26T11:09:43.074Z,99682.58
2019-01-26T11:10:49.269Z,99668.56
2019-01-26T11:11:55.142Z,99674.83
2019-01-26T11:13:01.581Z,99675.64
2019-01-26T11:14:07.630Z,99678.94
2019-01-26T11:15:13.941Z,99679.00
2019-01-26T11:16:20.952Z,99676.77
2019-01-26T11:17:26.658Z,99670.44
2019-01-26T11:18:32.840Z,99678.88
2019-01-26T11:19:38.956Z,99677.12
2019-01-26T11:20:44.852Z,99674.55
2019-01-26T11:21:51.115Z,99679.00
2019-01-26T11:22:57.475Z,99678.59
2019-01-26T11:24:03.005Z,99674.55
2019-01-26T11:25:10.113Z,99678.25
2019-01-26T11:26:16.208Z,99671.91
2019-01-26T11:27:21.623Z,99675.48
2019-01-26T11:28:27.299Z,99674.08
2019-01-26T11:29:32.214Z,99675.36
2019-01-26T11:30:38.575Z,99667.62
2019-01-26T11:31:45.067Z,99669.21
2019-01-26T11:32:50.903Z,99670.91
2019-01-26T11:33:58.760Z,99675.83
2019-01-26T11:35:06.175Z,99664.09
2019-01-26T11:36:12.127Z,99665.35
2019-01-26T11:37:18.500Z,99665.63
2019-01-26T11:38:24.756Z,99662.05
2019-01-26T11:39:32.584Z,99659.70
2019-01-26T11:40:39.451Z,99659.13
2019-01-26T11:41:44.973Z,99653.67
2019-01-26T11:42:51.254Z,99648.62
2019-01-26T11:43:57.406Z,99647.98
2019-01-26T11:45:23.475Z,99649.27
2019-01-26T11:46:33.372Z,99647.31
2019-01-26T11:47:40.268Z,99637.23
2019-01-26T11:48:49.030Z,99647.89
2019-01-26T11:49:59.231Z,99641.48
2019-01-26T11:51:20.651Z,99635.45
2019-01-26T11:52:27.185Z,99641.13
2019-01-26T11:53:33.954Z,99634.38
2019-01-26T11:55:02.751Z,99638.83
2019-01-26T11:56:22.763Z,99636.44
2019-01-26T11:57:31.808Z,99634.00
2019-01-26T11:58:38.352Z,99639.10
2019-01-26T11:59:46.473Z,99626.41
2019-01-26T12:01:10.886Z,99623.64
2019-01-26T12:02:30.006Z,99622.53
2019-01-26T12:03:56.982Z,99627.80
2019-01-26T12:05:25.100Z,99623.20
2019-01-26T12:06:37.446Z,99621.20
2019-01-26T12:07:43.550Z,99620.66
2019-01-26T12:08:49.392Z,99612.49
2019-01-26T12:09:55.739Z,99620.89
2019-01-26T12:11:02.273Z,99609.88
2019-01-26T12:12:09.111Z,99607.41
2019-01-26T12:13:15.869Z,99608.53
2019-01-26T12:14:22.559Z,99605.56
2019-01-26T12:15:29.646Z,99612.72
2019-01-26T12:16:36.029Z,99601.45
2019-01-26T12:17:42.152Z,99606.23
2019-01-26T12:18:48.422Z,99597.08
2019-01-26T12:19:55.840Z,99594.17
2019-01-26T12:21:02.193Z,99594.97
2019-01-26T12:22:08.189Z,99586.69
2019-01-26T12:23:15.654Z,99594.66
2019-01-26T12:24:21.930Z,99589.95
2019-01-26T12:25:28.296Z,99579.88
2019-01-26T12:26:35.551Z,99581.56
2019-01-26T12:27:42.051Z,99581.86
2019-01-26T12:28:49.613Z,99581.23
2019-01-26T12:29:56.157Z,99584.41
2019-01-26T12:31:03.544Z,99580.77
2019-01-26T12:32:10.019Z,99579.01
2019-01-26T12:33:16.383Z,99579.01
2019-01-26T12:34:22.594Z,99581.05
2019-01-26T12:35:28.608Z,99579.48
2019-01-26T12:36:35.248Z,99578.75
2019-01-26T12:37:41.491Z,99572.65
2019-01-26T12:38:48.039Z,99579.88
2019-01-26T12:39:55.388Z,99573.67
2019-01-26T12:41:01.733Z,99574.47
2019-01-26T12:42:09.005Z,99569.00
2019-01-26T12:43:17.277Z,99571.92
2019-01-26T12:44:24.722Z,99572.86